Time;durP1;ratioP1;P1;durP2;ratioP2;P2;SDS_P1;SDS_P2;PMS_P1;PMS_P2;Temp;Humidity;BMP_temperature;BMP_pressure;BME280_temperature;BME280_humidity;BME280_pressure;Samples;Min_cycle;Max_cycle;Signal;HPM_P1;HPM_P2
2021/12/23 00:01:51;;;;;;;65.90;31.70;;;;;;;;;;10155605;28;20332;-58
2021/12/23 00:06:49;;;;;;;28.02;18.67;;;;;;;;;;10155055;28;20073;-58
2021/12/23 00:11:48;;;;;;;40.22;25.90;;;;;;;;;;10153487;28;20047;-56
2021/12/23 00:16:56;;;;;;;42.08;25.45;;;;;;;;;;10153952;28;20077;-58
2021/12/23 00:27:15;;;;;;;36.30;23.95;;;;;;;;;;10149043;28;20484;-57
2021/12/23 00:32:15;;;;;;;41.60;28.17;;;;;;;;;;10146151;28;20076;-58
2021/12/23 00:37:13;;;;;;;63.67;38.75;;;;;;;;;;10153784;28;20078;-57
2021/12/23 00:42:11;;;;;;;35.03;23.80;;;;;;;;;;10152234;28;20076;-56
2021/12/23 00:47:10;;;;;;;26.85;16.40;;;;;;;;;;10150561;28;20069;-58
2021/12/23 00:52:10;;;;;;;40.60;24.10;;;;;;;;;;10152637;28;20062;-57
2021/12/23 00:57:08;;;;;;;39.25;23.85;;;;;;;;;;10152342;28;20506;-57
2021/12/23 01:02:09;;;;;;;17.40;11.52;;;;;;;;;;10153479;28;20061;-58
2021/12/23 01:07:10;;;;;;;14.93;9.60;;;;;;;;;;10152007;28;20081;-57
2021/12/23 01:12:10;;;;;;;13.75;10.68;;;;;;;;;;10152833;28;20073;-58
2021/12/23 01:17:28;;;;;;;16.25;11.52;;;;;;;;;;10152869;28;20101;-57
2021/12/23 01:22:28;;;;;;;15.73;11.48;;;;;;;;;;10152108;28;20074;-58
2021/12/23 01:27:26;;;;;;;22.75;14.32;;;;;;;;;;10153032;28;20443;-56
2021/12/23 01:32:25;;;;;;;22.33;15.98;;;;;;;;;;10152761;28;20069;-57
2021/12/23 01:37:23;;;;;;;143.82;66.38;;;;;;;;;;10152559;28;20082;-57
2021/12/23 01:42:23;;;;;;;55.72;30.05;;;;;;;;;;10153052;28;20082;-58
2021/12/23 01:47:21;;;;;;;109.82;57.63;;;;;;;;;;10146427;28;20070;-58
2021/12/23 01:52:20;;;;;;;30.77;20.65;;;;;;;;;;10152277;28;20396;-59
2021/12/23 01:57:19;;;;;;;20.83;14.60;;;;;;;;;;10151279;28;20086;-59
2021/12/23 02:02:19;;;;;;;19.75;12.23;;;;;;;;;;10155821;28;20069;-58
2021/12/23 02:07:17;;;;;;;22.98;14.13;;;;;;;;;;10159788;28;20106;-57
2021/12/23 02:12:16;;;;;;;317.98;137.05;;;;;;;;;;10159780;28;20061;-58
2021/12/23 02:17:14;;;;;;;72.80;39.28;;;;;;;;;;10159442;28;20070;-50
2021/12/23 02:22:14;;;;;;;133.35;60.60;;;;;;;;;;10146894;28;20081;-58
2021/12/23 02:27:12;;;;;;;150.77;70.53;;;;;;;;;;10158537;28;20080;-58
2021/12/23 02:32:10;;;;;;;68.03;36.78;;;;;;;;;;10152608;28;20409;-59
2021/12/23 02:37:09;;;;;;;68.90;38.58;;;;;;;;;;10158427;28;20070;-59
2021/12/23 02:42:09;;;;;;;35.60;22.73;;;;;;;;;;10158588;28;20078;-57
2021/12/23 02:47:07;;;;;;;34.35;20.40;;;;;;;;;;10158542;28;20093;-58
2021/12/23 02:52:06;;;;;;;31.60;19.25;;;;;;;;;;10156415;28;20086;-57
2021/12/23 02:57:04;;;;;;;36.28;22.70;;;;;;;;;;10155025;28;20488;-57
2021/12/23 03:02:04;;;;;;;40.78;25.58;;;;;;;;;;10155166;28;20518;-57
2021/12/23 03:07:03;;;;;;;26.73;18.58;;;;;;;;;;10156103;28;20074;-57
2021/12/23 03:12:01;;;;;;;23.88;16.38;;;;;;;;;;10153078;28;20082;-58
2021/12/23 03:17:00;;;;;;;19.00;13.35;;;;;;;;;;10155530;28;20073;-58
2021/12/23 03:21:59;;;;;;;23.23;15.10;;;;;;;;;;10155990;28;20078;-59
2021/12/23 03:26:58;;;;;;;23.27;14.68;;;;;;;;;;10156839;28;20082;-58
2021/12/23 03:31:56;;;;;;;31.92;21.38;;;;;;;;;;10156789;28;20082;-58
2021/12/23 03:36:55;;;;;;;50.00;29.17;;;;;;;;;;10155349;28;20073;-58
2021/12/23 03:41:54;;;;;;;19.20;12.25;;;;;;;;;;10156337;28;20081;-58
2021/12/23 03:46:53;;;;;;;14.95;11.05;;;;;;;;;;10155879;28;20069;-59
2021/12/23 03:51:51;;;;;;;57.10;33.83;;;;;;;;;;10156092;28;20086;-57
2021/12/23 03:56:50;;;;;;;19.55;14.25;;;;;;;;;;10154428;28;20526;-57
2021/12/23 04:01:49;;;;;;;21.13;13.77;;;;;;;;;;10155236;28;20084;-57
2021/12/23 04:06:48;;;;;;;77.43;46.08;;;;;;;;;;10154372;28;20398;-56
2021/12/23 04:11:46;;;;;;;93.60;55.45;;;;;;;;;;10154647;28;20490;-57
2021/12/23 04:16:44;;;;;;;184.18;110.40;;;;;;;;;;10154952;28;20081;-56
2021/12/23 04:21:44;;;;;;;43.85;30.60;;;;;;;;;;10153982;28;20080;-58
2021/12/23 04:26:42;;;;;;;39.50;23.30;;;;;;;;;;10152421;28;20480;-57
2021/12/23 04:31:41;;;;;;;375.90;210.55;;;;;;;;;;10154101;28;20085;-57
2021/12/23 04:36:39;;;;;;;184.13;96.63;;;;;;;;;;10152830;28;20523;-57
2021/12/23 04:41:39;;;;;;;169.27;97.80;;;;;;;;;;10148837;28;20468;-58
2021/12/23 04:46:37;;;;;;;210.63;106.45;;;;;;;;;;10150863;28;20331;-52
2021/12/23 04:51:35;;;;;;;178.70;94.50;;;;;;;;;;10150029;28;20114;-58
2021/12/23 04:56:34;;;;;;;296.15;133.52;;;;;;;;;;10149520;28;20081;-58
2021/12/23 05:01:33;;;;;;;114.10;56.60;;;;;;;;;;10149566;28;20073;-58
2021/12/23 05:06:32;;;;;;;33.03;20.08;;;;;;;;;;10144841;28;20062;-59
2021/12/23 05:11:30;;;;;;;56.97;34.97;;;;;;;;;;10149009;28;20074;-58
2021/12/23 05:16:29;;;;;;;26.73;17.73;;;;;;;;;;10148625;28;20526;-59
2021/12/23 05:21:28;;;;;;;27.05;16.98;;;;;;;;;;10148431;28;20788;-58
2021/12/23 05:26:27;;;;;;;18.25;13.25;;;;;;;;;;10147311;28;20077;-57
2021/12/23 05:31:25;;;;;;;18.80;11.43;;;;;;;;;;10147081;28;20058;-58
2021/12/23 05:36:23;;;;;;;21.88;14.27;;;;;;;;;;10146704;28;20078;-58
2021/12/23 05:41:26;;;;;;;21.05;15.75;;;;;;;;;;10152221;28;20093;-59
2021/12/23 05:46:25;;;;;;;25.90;20.58;;;;;;;;;;10160265;28;20070;-56
2021/12/23 05:51:23;;;;;;;22.15;14.23;;;;;;;;;;10160630;28;20042;-57
2021/12/23 05:56:23;;;;;;;21.48;15.27;;;;;;;;;;10158232;28;20077;-58
2021/12/23 06:01:21;;;;;;;24.45;16.20;;;;;;;;;;10149767;28;20477;-58
2021/12/23 06:06:20;;;;;;;40.65;23.58;;;;;;;;;;10149241;28;20074;-57
2021/12/23 06:11:18;;;;;;;265.60;106.03;;;;;;;;;;10150673;28;20117;-58
2021/12/23 06:16:18;;;;;;;281.33;122.57;;;;;;;;;;10149788;28;20101;-57
2021/12/23 06:21:16;;;;;;;104.63;46.88;;;;;;;;;;10145876;28;20152;-58
2021/12/23 06:26:15;;;;;;;47.83;27.83;;;;;;;;;;10152416;28;20073;-56
2021/12/23 06:31:13;;;;;;;388.13;188.80;;;;;;;;;;10157812;28;20069;-58
2021/12/23 06:36:13;;;;;;;84.68;46.53;;;;;;;;;;10155855;28;20066;-56
2021/12/23 06:41:12;;;;;;;113.70;58.15;;;;;;;;;;10155063;28;20070;-57
2021/12/23 06:46:10;;;;;;;134.98;63.33;;;;;;;;;;10153788;28;20066;-57
2021/12/23 06:51:09;;;;;;;132.65;60.35;;;;;;;;;;10150327;28;20077;-57
2021/12/23 06:56:10;;;;;;;299.38;125.70;;;;;;;;;;10154720;28;20085;-55
2021/12/23 07:01:08;;;;;;;361.63;142.35;;;;;;;;;;10153594;28;20744;-58
2021/12/23 07:06:07;;;;;;;350.23;145.15;;;;;;;;;;10150357;28;20065;-52
2021/12/23 07:11:06;;;;;;;275.15;121.18;;;;;;;;;;10151580;28;20464;-56
2021/12/23 07:16:05;;;;;;;375.95;159.80;;;;;;;;;;10154954;28;20076;-56
2021/12/23 07:21:04;;;;;;;247.13;101.78;;;;;;;;;;10153306;28;20074;-56
2021/12/23 07:26:02;;;;;;;303.13;127.70;;;;;;;;;;10154930;28;20067;-57
2021/12/23 07:31:01;;;;;;;342.02;134.50;;;;;;;;;;10151353;28;20062;-54
2021/12/23 07:36:00;;;;;;;159.10;67.35;;;;;;;;;;10153495;28;20065;-57
2021/12/23 07:40:59;;;;;;;55.55;30.05;;;;;;;;;;10149237;28;20076;-56
2021/12/23 07:45:57;;;;;;;106.03;49.17;;;;;;;;;;10148827;28;20071;-58
2021/12/23 07:50:55;;;;;;;194.88;84.10;;;;;;;;;;10150559;28;20074;-54
2021/12/23 07:55:55;;;;;;;284.98;110.63;;;;;;;;;;10155542;28;20100;-56
2021/12/23 08:00:53;;;;;;;456.75;175.48;;;;;;;;;;10155471;28;20496;-57
2021/12/23 08:05:52;;;;;;;191.40;78.32;;;;;;;;;;10160783;28;20057;-58
2021/12/23 08:10:51;;;;;;;113.63;50.60;;;;;;;;;;10155156;28;20073;-58
2021/12/23 08:15:51;;;;;;;111.70;53.97;;;;;;;;;;10155245;28;20069;-57
2021/12/23 08:20:49;;;;;;;56.53;32.63;;;;;;;;;;10152543;28;20090;-60
2021/12/23 08:25:47;;;;;;;90.30;52.85;;;;;;;;;;10154772;28;20474;-58
2021/12/23 08:30:46;;;;;;;78.95;45.50;;;;;;;;;;10154159;28;20530;-57
2021/12/23 08:35:46;;;;;;;35.10;23.45;;;;;;;;;;10153840;28;20061;-57
2021/12/23 08:40:44;;;;;;;60.65;35.28;;;;;;;;;;10153879;28;20460;-54
2021/12/23 08:45:42;;;;;;;49.55;28.08;;;;;;;;;;10153896;28;20081;-56
2021/12/23 08:50:41;;;;;;;119.80;67.22;;;;;;;;;;10153998;28;20069;-55
2021/12/23 08:55:40;;;;;;;45.63;26.48;;;;;;;;;;10153788;28;20495;-57
2021/12/23 09:00:39;;;;;;;53.05;33.08;;;;;;;;;;10154447;28;20077;-57
2021/12/23 09:05:39;;;;;;;37.67;24.73;;;;;;;;;;10149192;28;20078;-57
2021/12/23 09:10:37;;;;;;;49.25;34.50;;;;;;;;;;10152474;28;20074;-58
2021/12/23 09:15:36;;;;;;;35.10;24.27;;;;;;;;;;10151537;28;20523;-58
2021/12/23 09:20:36;;;;;;;28.80;20.65;;;;;;;;;;10150432;28;20078;-57
2021/12/23 09:25:34;;;;;;;27.85;21.17;;;;;;;;;;10152480;28;20070;-57
2021/12/23 09:35:54;;;;;;;33.55;23.38;;;;;;;;;;10153317;28;20475;-56
2021/12/23 09:40:53;;;;;;;76.65;44.15;;;;;;;;;;10153240;28;20185;-57
2021/12/23 09:45:52;;;;;;;31.50;20.38;;;;;;;;;;10153255;28;20081;-57
2021/12/23 09:50:53;;;;;;;47.50;31.77;;;;;;;;;;10152444;28;20081;-58
2021/12/23 09:55:51;;;;;;;50.85;30.67;;;;;;;;;;10151791;28;20484;-55
2021/12/23 10:00:50;;;;;;;37.33;26.25;;;;;;;;;;10152968;28;20074;-58
2021/12/23 10:05:50;;;;;;;32.90;23.15;;;;;;;;;;10153188;28;20487;-57
2021/12/23 10:10:53;;;;;;;43.13;27.80;;;;;;;;;;10151021;28;20496;-58
2021/12/23 10:31:48;;;;;;;31.83;22.48;;;;;;;;;;10155382;28;20527;-59
2021/12/23 10:42:19;;;;;;;31.00;21.30;;;;;;;;;;10148286;28;20097;-57
2021/12/23 10:47:30;;;;;;;39.45;27.30;;;;;;;;;;10158005;28;20512;-55
2021/12/23 10:52:32;;;;;;;32.00;21.60;;;;;;;;;;10158662;28;20078;-57
2021/12/23 11:03:00;;;;;;;46.47;34.70;;;;;;;;;;10063878;28;20086;-56
2021/12/23 11:08:11;;;;;;;50.90;31.70;;;;;;;;;;10158361;28;20097;-56
2021/12/23 11:40:11;;;;;;;42.25;31.77;;;;;;;;;;10081419;28;20089;-57
2021/12/23 11:45:09;;;;;;;31.92;22.63;;;;;;;;;;10156074;28;20077;-56
2021/12/23 11:50:18;;;;;;;61.95;39.10;;;;;;;;;;10156555;28;20571;-58
2021/12/23 11:55:17;;;;;;;35.33;25.65;;;;;;;;;;10156067;28;20078;-58
2021/12/23 12:00:20;;;;;;;40.20;29.08;;;;;;;;;;10155508;28;20073;-57
2021/12/23 12:05:19;;;;;;;34.28;25.30;;;;;;;;;;10153340;28;20073;-56
2021/12/23 12:10:21;;;;;;;42.15;24.88;;;;;;;;;;10155373;28;20069;-56
2021/12/23 12:15:33;;;;;;;50.28;33.72;;;;;;;;;;10155204;28;20076;-56
2021/12/23 12:20:37;;;;;;;42.95;29.40;;;;;;;;;;10154385;28;20073;-58
2021/12/23 12:25:52;;;;;;;38.65;25.50;;;;;;;;;;10155210;28;20074;-58
2021/12/23 12:30:52;;;;;;;45.92;28.60;;;;;;;;;;10155834;28;20073;-59
2021/12/23 12:35:51;;;;;;;29.73;20.40;;;;;;;;;;10155399;28;20508;-59
2021/12/23 12:40:57;;;;;;;63.03;42.00;;;;;;;;;;10154297;28;20088;-56
2021/12/23 12:45:56;;;;;;;48.63;31.13;;;;;;;;;;10152704;28;20074;-58
2021/12/23 12:50:54;;;;;;;33.60;24.67;;;;;;;;;;10153889;28;20496;-57
2021/12/23 12:55:53;;;;;;;28.00;20.02;;;;;;;;;;10152926;28;20103;-57
2021/12/23 13:00:52;;;;;;;40.67;25.42;;;;;;;;;;10153510;28;20074;-58
2021/12/23 13:05:54;;;;;;;79.13;51.88;;;;;;;;;;10153584;28;20073;-58
2021/12/23 13:10:52;;;;;;;54.22;35.83;;;;;;;;;;10158674;28;20077;-58
2021/12/23 13:16:13;;;;;;;58.83;35.72;;;;;;;;;;10158852;28;20477;-57
2021/12/23 13:21:13;;;;;;;42.65;29.05;;;;;;;;;;10153112;28;20076;-58
2021/12/23 13:26:12;;;;;;;49.70;34.08;;;;;;;;;;10152372;28;20070;-58
2021/12/23 13:31:14;;;;;;;54.72;36.10;;;;;;;;;;10153093;28;20097;-59
2021/12/23 13:36:18;;;;;;;48.13;33.75;;;;;;;;;;10152755;28;20080;-58
2021/12/23 13:41:18;;;;;;;56.40;36.42;;;;;;;;;;10153782;28;20078;-57
2021/12/23 13:46:16;;;;;;;43.50;30.10;;;;;;;;;;10153618;28;20066;-57
2021/12/23 13:51:15;;;;;;;45.67;29.73;;;;;;;;;;10151719;28;20066;-58
2021/12/23 13:56:15;;;;;;;41.67;28.50;;;;;;;;;;10151269;28;20475;-54
2021/12/23 14:01:14;;;;;;;49.90;30.27;;;;;;;;;;10155765;28;20066;-56
2021/12/23 14:06:14;;;;;;;41.85;25.85;;;;;;;;;;10157816;28;20081;-58
2021/12/23 14:11:13;;;;;;;37.10;25.00;;;;;;;;;;10174136;28;20082;-57
2021/12/23 14:16:17;;;;;;;41.63;28.90;;;;;;;;;;10157556;28;20066;-58
2021/12/23 14:26:37;;;;;;;78.68;47.38;;;;;;;;;;10155662;28;20073;-58
2021/12/23 14:31:41;;;;;;;96.85;60.22;;;;;;;;;;10156948;28;20078;-57
2021/12/23 14:36:40;;;;;;;94.18;54.40;;;;;;;;;;10159017;28;20062;-58
2021/12/23 14:41:40;;;;;;;82.85;56.17;;;;;;;;;;10158893;28;20073;-59
2021/12/23 14:46:47;;;;;;;76.38;53.97;;;;;;;;;;10158956;28;20081;-57
2021/12/23 14:51:45;;;;;;;75.40;51.08;;;;;;;;;;10158592;28;20073;-56
2021/12/23 14:57:04;;;;;;;141.55;79.05;;;;;;;;;;10157263;28;20108;-57
2021/12/23 15:02:06;;;;;;;184.50;99.35;;;;;;;;;;10158553;28;20078;-54
2021/12/23 15:07:06;;;;;;;165.68;94.03;;;;;;;;;;10157381;28;20066;-57
2021/12/23 15:12:11;;;;;;;199.90;111.53;;;;;;;;;;10156671;28;20080;-56
2021/12/23 15:17:16;;;;;;;123.05;73.30;;;;;;;;;;10154407;28;20092;-58
2021/12/23 15:22:16;;;;;;;99.30;59.08;;;;;;;;;;10145670;28;20137;-57
2021/12/23 15:27:21;;;;;;;88.28;55.95;;;;;;;;;;10148646;28;20081;-57
2021/12/23 15:32:24;;;;;;;;;;;;;;;;;;10152693;28;20077;-57
2021/12/23 15:37:25;;;;;;;136.18;76.68;;;;;;;;;;10150751;28;19955;-56
2021/12/23 15:42:24;;;;;;;132.60;81.03;;;;;;;;;;10152770;28;20081;-58
2021/12/23 15:47:23;;;;;;;126.38;75.78;;;;;;;;;;10147886;28;20335;-55
2021/12/23 15:52:22;;;;;;;117.75;67.15;;;;;;;;;;10151771;28;20070;-57
2021/12/23 15:57:22;;;;;;;102.47;61.58;;;;;;;;;;10155458;28;20081;-57
2021/12/23 16:02:21;;;;;;;109.03;66.18;;;;;;;;;;10152844;28;20460;-57
2021/12/23 16:07:19;;;;;;;120.05;70.70;;;;;;;;;;10154781;28;20070;-58
2021/12/23 16:12:18;;;;;;;123.40;73.28;;;;;;;;;;10149637;28;20074;-56
2021/12/23 16:17:21;;;;;;;137.95;82.65;;;;;;;;;;10153921;28;20084;-57
2021/12/23 16:22:20;;;;;;;117.90;70.45;;;;;;;;;;10153191;28;20045;-51
2021/12/23 16:27:19;;;;;;;159.32;91.10;;;;;;;;;;10153481;28;20081;-53
2021/12/23 16:32:17;;;;;;;137.68;82.22;;;;;;;;;;10153860;28;20074;-55
2021/12/23 16:37:17;;;;;;;140.98;78.55;;;;;;;;;;10154304;28;20062;-53
2021/12/23 16:42:15;;;;;;;113.85;63.55;;;;;;;;;;10152260;28;20070;-50
2021/12/23 16:47:14;;;;;;;114.18;62.67;;;;;;;;;;10152335;28;20074;-54
2021/12/23 16:52:12;;;;;;;122.85;75.00;;;;;;;;;;10148471;28;20062;-54
2021/12/23 17:02:28;;;;;;;115.10;68.07;;;;;;;;;;10151172;28;20081;-50
2021/12/23 17:07:26;;;;;;;113.75;67.75;;;;;;;;;;10150413;28;20069;-52
2021/12/23 17:12:26;;;;;;;108.68;63.35;;;;;;;;;;10153090;28;20066;-52
2021/12/23 17:17:29;;;;;;;93.88;55.60;;;;;;;;;;10151142;28;20073;-54
2021/12/23 17:22:27;;;;;;;74.20;46.53;;;;;;;;;;10152679;28;20086;-54
2021/12/23 17:27:29;;;;;;;71.82;46.20;;;;;;;;;;10151228;28;20069;-52
2021/12/23 17:32:27;;;;;;;64.75;39.03;;;;;;;;;;10150773;28;20085;-55
2021/12/23 17:37:25;;;;;;;104.75;62.22;;;;;;;;;;10150643;28;20475;-56
2021/12/23 17:42:23;;;;;;;208.93;118.60;;;;;;;;;;10150195;28;20065;-55
2021/12/23 17:47:24;;;;;;;172.10;100.00;;;;;;;;;;10152232;28;20081;-55
2021/12/23 17:52:22;;;;;;;191.38;107.03;;;;;;;;;;10150488;28;20104;-54
2021/12/23 17:57:20;;;;;;;207.77;112.85;;;;;;;;;;10149521;28;20086;-55
2021/12/23 18:02:19;;;;;;;171.52;91.43;;;;;;;;;;10149788;28;20078;-55
2021/12/23 18:07:19;;;;;;;193.05;99.22;;;;;;;;;;10148075;28;20070;-52
2021/12/23 18:12:19;;;;;;;346.80;166.32;;;;;;;;;;10146934;28;20070;-55
2021/12/23 18:17:17;;;;;;;222.90;114.05;;;;;;;;;;10144198;28;20078;-53
2021/12/23 18:22:15;;;;;;;155.48;82.50;;;;;;;;;;10149750;28;20066;-55
2021/12/23 18:27:16;;;;;;;158.65;77.82;;;;;;;;;;10135656;28;20078;-54
2021/12/23 18:32:14;;;;;;;279.08;125.15;;;;;;;;;;10148318;28;20487;-56
2021/12/23 18:37:13;;;;;;;85.13;50.13;;;;;;;;;;10144988;28;20093;-55
2021/12/23 18:42:13;;;;;;;193.05;107.22;;;;;;;;;;10148158;28;20090;-53
2021/12/23 18:47:13;;;;;;;195.55;105.35;;;;;;;;;;10156062;28;20076;-55
2021/12/23 18:52:11;;;;;;;130.80;78.50;;;;;;;;;;10153629;28;20062;-55
2021/12/23 18:57:09;;;;;;;114.53;67.35;;;;;;;;;;10152582;28;20074;-55
2021/12/23 19:02:22;;;;;;;82.32;48.70;;;;;;;;;;10152798;28;20084;-49
2021/12/23 19:07:22;;;;;;;167.05;86.30;;;;;;;;;;10150840;28;20073;-56
2021/12/23 19:12:21;;;;;;;118.43;64.25;;;;;;;;;;10150443;28;20073;-55
2021/12/23 19:17:21;;;;;;;88.57;50.90;;;;;;;;;;10152163;28;20073;-56
2021/12/23 19:22:19;;;;;;;165.63;94.43;;;;;;;;;;10149727;28;20062;-56
2021/12/23 19:27:18;;;;;;;116.90;70.97;;;;;;;;;;10153567;28;20479;-55
2021/12/23 19:32:18;;;;;;;113.13;69.65;;;;;;;;;;10149549;28;20078;-56
2021/12/23 19:37:16;;;;;;;62.92;40.75;;;;;;;;;;10153021;28;20073;-53
2021/12/23 19:42:14;;;;;;;48.33;31.10;;;;;;;;;;10147092;28;20062;-56
2021/12/23 19:47:14;;;;;;;48.75;32.08;;;;;;;;;;10151146;28;20093;-56
2021/12/23 19:52:12;;;;;;;137.60;76.85;;;;;;;;;;10145115;28;20487;-54
2021/12/23 19:57:11;;;;;;;104.72;62.72;;;;;;;;;;10149588;28;20074;-55
2021/12/23 20:02:15;;;;;;;58.63;38.50;;;;;;;;;;10149500;28;20121;-54
2021/12/23 20:07:14;;;;;;;51.85;31.83;;;;;;;;;;10150169;28;20070;-53
2021/12/23 20:12:12;;;;;;;40.30;30.50;;;;;;;;;;10144787;28;20077;-54
2021/12/23 20:17:11;;;;;;;41.28;29.77;;;;;;;;;;10148659;28;20069;-58
2021/12/23 20:22:10;;;;;;;57.45;37.90;;;;;;;;;;10147616;28;20073;-57
2021/12/23 20:27:09;;;;;;;41.25;27.77;;;;;;;;;;10151244;28;20101;-56
2021/12/23 20:32:08;;;;;;;39.53;28.95;;;;;;;;;;10149268;28;20077;-56
2021/12/23 20:37:06;;;;;;;44.50;33.40;;;;;;;;;;10143411;28;20076;-56
2021/12/23 20:42:06;;;;;;;41.10;30.73;;;;;;;;;;10147023;28;20082;-56
2021/12/23 20:47:05;;;;;;;30.30;23.40;;;;;;;;;;10147670;28;20081;-55
2021/12/23 20:52:05;;;;;;;38.90;30.15;;;;;;;;;;10145076;28;20058;-52
2021/12/23 20:57:04;;;;;;;38.03;26.90;;;;;;;;;;10145608;28;20078;-53
2021/12/23 21:02:04;;;;;;;137.30;68.32;;;;;;;;;;10146169;28;20460;-53
2021/12/23 21:07:03;;;;;;;63.80;35.58;;;;;;;;;;10146266;28;20130;-56
2021/12/23 21:12:01;;;;;;;115.20;67.07;;;;;;;;;;10147360;28;20515;-52
2021/12/23 21:16:59;;;;;;;43.53;28.38;;;;;;;;;;10144635;28;20069;-54
2021/12/23 21:21:59;;;;;;;38.17;23.83;;;;;;;;;;10147532;28;20530;-51
2021/12/23 21:26:57;;;;;;;22.25;16.45;;;;;;;;;;10143436;28;20150;-50
2021/12/23 21:31:55;;;;;;;43.05;25.05;;;;;;;;;;10147144;28;20069;-51
2021/12/23 21:36:54;;;;;;;31.63;18.90;;;;;;;;;;10147823;28;20080;-54
2021/12/23 21:41:56;;;;;;;38.00;21.80;;;;;;;;;;10149918;28;20621;-53
2021/12/23 21:46:54;;;;;;;26.17;16.38;;;;;;;;;;10149364;28;20092;-55
2021/12/23 21:51:52;;;;;;;40.30;25.42;;;;;;;;;;10146240;28;20066;-54
2021/12/23 21:56:51;;;;;;;40.65;23.58;;;;;;;;;;10143995;28;20070;-54
2021/12/23 22:01:50;;;;;;;49.90;28.13;;;;;;;;;;10146742;28;20353;-54
2021/12/23 22:06:49;;;;;;;70.40;37.42;;;;;;;;;;10147240;28;20102;-55
2021/12/23 22:11:47;;;;;;;57.47;32.75;;;;;;;;;;10147939;28;20073;-56
2021/12/23 22:16:45;;;;;;;68.97;38.25;;;;;;;;;;10148631;28;20070;-56
2021/12/23 22:21:45;;;;;;;73.05;36.83;;;;;;;;;;10150320;28;20085;-51
2021/12/23 22:26:44;;;;;;;136.07;69.38;;;;;;;;;;10154211;28;20502;-54
2021/12/23 22:31:42;;;;;;;212.52;90.65;;;;;;;;;;10150978;28;20070;-53
2021/12/23 22:36:41;;;;;;;159.73;70.82;;;;;;;;;;10147882;28;20125;-55
2021/12/23 22:41:41;;;;;;;356.58;136.18;;;;;;;;;;10153488;28;20074;-55
2021/12/23 22:46:39;;;;;;;215.55;94.47;;;;;;;;;;10153916;28;20093;-54
2021/12/23 22:51:38;;;;;;;171.95;79.53;;;;;;;;;;10150516;28;20081;-54
2021/12/23 22:56:36;;;;;;;154.32;68.45;;;;;;;;;;10155047;28;20106;-55
2021/12/23 23:01:36;;;;;;;144.70;65.03;;;;;;;;;;10156234;28;20089;-54
2021/12/23 23:06:35;;;;;;;141.20;68.63;;;;;;;;;;10155991;28;20077;-55
2021/12/23 23:11:36;;;;;;;111.72;53.50;;;;;;;;;;10156798;28;20073;-55
2021/12/23 23:16:45;;;;;;;93.38;43.67;;;;;;;;;;10156584;28;20065;-54
2021/12/23 23:21:44;;;;;;;130.50;66.95;;;;;;;;;;10155251;28;20077;-56
2021/12/23 23:26:49;;;;;;;118.10;59.35;;;;;;;;;;10150264;28;20073;-57
2021/12/23 23:37:14;;;;;;;162.85;72.90;;;;;;;;;;10155344;28;20094;-55
2021/12/23 23:42:21;;;;;;;80.28;38.83;;;;;;;;;;10153665;28;20078;-54
2021/12/23 23:47:20;;;;;;;47.03;27.50;;;;;;;;;;10149239;28;20101;-55
2021/12/23 23:52:19;;;;;;;33.78;20.15;;;;;;;;;;10150820;28;20093;-56
2021/12/23 23:57:17;;;;;;;68.53;38.33;;;;;;;;;;10149835;28;20078;-54
